Milligan, Indiana
Current Conditions -  °F | °C
As of 2:35 PM on Friday 21 Nov 2014 (Local Time) from K4I7 Reporting Station
Clear Clear  
Wind Chill: 26°   Ceiling: Unl
Heat Index: 32°   Visibility: 10mi
Dew Point: 12°   Wind: 6mph
Humidity: 44%   Direction: 160°SSE
Pressure: 30.43"   Gusts: NA
Location:  39.7714°N, 87.1705°W
Report Text: K4I7 211935Z AUTO 16005KT 10SM CLR 00/M11 A3043 RMK AO2
Loading
Personal Weather Stations






























Interactive Weather Map New forecast layout! Learn more

10-Day Weather Forecast

Advertisements
Track Severe Weather on mobile